createdAt,value
2023-02-01T00:02:37.267Z,3.65
2023-02-01T00:05:24.845Z,3.69
2023-02-01T00:08:12.539Z,3.65
2023-02-01T00:11:02.295Z,3.66
2023-02-01T00:13:52.250Z,3.67
2023-02-01T00:16:40.264Z,3.69
2023-02-01T00:19:28.056Z,3.65
2023-02-01T00:22:15.640Z,3.67
2023-02-01T00:25:03.587Z,3.67
2023-02-01T00:27:51.952Z,3.69
2023-02-01T00:30:41.400Z,3.68
2023-02-01T00:33:29.771Z,3.67
2023-02-01T00:36:18.852Z,3.69
2023-02-01T00:39:06.918Z,3.69
2023-02-01T00:41:56.199Z,3.73
2023-02-01T00:44:43.631Z,3.72
2023-02-01T00:47:32.804Z,3.78
2023-02-01T00:50:20.941Z,3.73
2023-02-01T00:53:08.593Z,3.75
2023-02-01T00:55:57.262Z,3.74
2023-02-01T00:58:46.088Z,3.76
2023-02-01T01:01:33.813Z,3.75
2023-02-01T01:04:22.847Z,3.79
2023-02-01T01:07:10.402Z,3.79
2023-02-01T01:09:57.913Z,3.79
2023-02-01T01:12:45.449Z,3.78
2023-02-01T01:15:33.379Z,3.76
2023-02-01T01:18:21.193Z,3.76
2023-02-01T01:21:13.243Z,3.75
2023-02-01T01:24:01.429Z,3.74
2023-02-01T01:26:49.317Z,3.75
2023-02-01T01:29:37.231Z,3.75
2023-02-01T01:32:24.832Z,3.74
2023-02-01T01:35:13.089Z,3.73
2023-02-01T01:38:03.583Z,3.73
2023-02-01T01:40:51.731Z,3.69
2023-02-01T01:43:58.975Z,3.71
2023-02-01T01:46:47.021Z,3.72
2023-02-01T01:49:35.081Z,3.74
2023-02-01T01:52:23.167Z,3.73
2023-02-01T01:55:13.652Z,3.73
2023-02-01T01:58:07.480Z,3.71
2023-02-01T02:00:57.987Z,3.74
2023-02-01T02:03:48.715Z,3.76
2023-02-01T02:06:49.089Z,3.76
2023-02-01T02:09:38.507Z,3.76
2023-02-01T02:12:27.659Z,3.75
2023-02-01T02:15:17.955Z,3.72
2023-02-01T02:18:17.989Z,3.74
2023-02-01T02:21:34.747Z,3.75
2023-02-01T02:25:03.035Z,3.78
2023-02-01T02:28:09.545Z,3.77
2023-02-01T02:31:35.106Z,3.79
2023-02-01T02:34:31.061Z,3.74
2023-02-01T02:37:31.936Z,3.77
2023-02-01T02:40:29.976Z,3.79
2023-02-01T02:43:42.518Z,3.77
2023-02-01T02:47:10.977Z,3.76
2023-02-01T02:50:32.446Z,3.77
2023-02-01T02:53:44.732Z,3.79
2023-02-01T02:56:50.395Z,3.82
2023-02-01T02:59:59.478Z,3.81
2023-02-01T03:03:06.485Z,3.83
2023-02-01T03:05:55.611Z,3.84
2023-02-01T03:08:46.270Z,3.83
2023-02-01T03:11:51.066Z,3.80
2023-02-01T03:14:45.936Z,3.82
2023-02-01T03:17:41.168Z,3.79
2023-02-01T03:20:30.149Z,3.80
2023-02-01T03:23:26.087Z,3.81
2023-02-01T03:26:19.489Z,3.81
2023-02-01T03:29:16.510Z,3.79
2023-02-01T03:32:04.229Z,3.80
2023-02-01T03:34:55.544Z,3.79
2023-02-01T03:37:46.554Z,3.79
2023-02-01T03:40:39.668Z,3.79
2023-02-01T03:43:31.509Z,3.77
2023-02-01T03:46:34.088Z,3.79
2023-02-01T03:49:27.623Z,3.81
2023-02-01T03:52:24.343Z,3.78
2023-02-01T03:55:15.048Z,3.80
2023-02-01T03:58:14.339Z,3.78
2023-02-01T04:01:03.146Z,3.81
2023-02-01T04:03:52.141Z,3.80
2023-02-01T04:06:41.192Z,3.84
2023-02-01T04:09:30.238Z,3.86
2023-02-01T04:12:18.237Z,3.84
2023-02-01T04:15:09.521Z,3.83
2023-02-01T04:17:57.504Z,3.83
2023-02-01T04:20:50.750Z,3.86
2023-02-01T04:23:39.064Z,3.82
2023-02-01T04:26:28.430Z,3.85
2023-02-01T04:29:16.692Z,3.83
2023-02-01T04:32:06.225Z,3.83
2023-02-01T04:34:54.721Z,3.84
2023-02-01T04:37:42.976Z,3.80
2023-02-01T04:40:31.147Z,3.81
2023-02-01T04:43:19.242Z,3.82
2023-02-01T04:46:06.896Z,3.80
2023-02-01T04:48:57.611Z,3.79
2023-02-01T04:51:45.849Z,3.76
2023-02-01T04:54:33.710Z,3.75
2023-02-01T04:57:21.377Z,3.75
2023-02-01T05:00:11.871Z,3.74
2023-02-01T05:02:59.353Z,3.75
2023-02-01T05:05:49.916Z,3.74
2023-02-01T05:08:38.884Z,3.73
2023-02-01T05:11:44.130Z,3.74
2023-02-01T05:14:32.137Z,3.71
2023-02-01T05:17:19.785Z,3.70
2023-02-01T05:20:08.802Z,3.70
2023-02-01T05:22:58.856Z,3.69
2023-02-01T05:25:46.412Z,3.69
2023-02-01T05:28:35.028Z,3.67
2023-02-01T05:31:24.878Z,3.66
2023-02-01T05:34:13.176Z,3.64
2023-02-01T05:37:00.907Z,3.63
2023-02-01T05:39:50.779Z,3.62
2023-02-01T05:42:38.238Z,3.60
2023-02-01T05:45:27.225Z,3.58
2023-02-01T05:48:16.181Z,3.58
2023-02-01T05:51:03.824Z,3.56
2023-02-01T05:53:51.320Z,3.55
2023-02-01T05:56:41.733Z,3.53
2023-02-01T05:59:29.526Z,3.52
2023-02-01T06:02:17.447Z,3.52
2023-02-01T06:05:05.406Z,3.49
2023-02-01T06:07:53.123Z,3.48
2023-02-01T06:10:41.230Z,3.47
2023-02-01T06:13:32.669Z,3.45
2023-02-01T06:16:21.699Z,3.43
2023-02-01T06:19:09.793Z,3.43
2023-02-01T06:21:57.570Z,3.41
2023-02-01T06:24:45.607Z,3.40
2023-02-01T06:27:33.643Z,3.38
2023-02-01T06:30:23.188Z,3.37
2023-02-01T06:33:15.664Z,3.37
2023-02-01T06:36:05.676Z,3.36
2023-02-01T06:38:53.534Z,3.37
2023-02-01T06:41:41.205Z,3.37
2023-02-01T06:44:58.347Z,3.35
2023-02-01T06:47:47.044Z,3.35
2023-02-01T06:50:36.132Z,3.35
2023-02-01T06:53:23.951Z,3.36
2023-02-01T06:56:13.653Z,3.34
2023-02-01T06:59:09.584Z,3.33
2023-02-01T07:01:59.978Z,3.34
2023-02-01T07:04:51.695Z,3.38
2023-02-01T07:07:41.648Z,3.34
2023-02-01T07:10:31.795Z,3.34
2023-02-01T07:13:20.939Z,3.34
2023-02-01T07:16:16.538Z,3.37
2023-02-01T07:19:06.180Z,3.37
2023-02-01T07:22:01.913Z,3.38
2023-02-01T07:24:52.469Z,3.38
2023-02-01T07:27:41.247Z,3.39
2023-02-01T07:30:29.930Z,3.38
2023-02-01T07:33:18.001Z,3.41
2023-02-01T07:36:09.393Z,3.45
2023-02-01T07:39:00.279Z,3.45
2023-02-01T07:41:48.551Z,3.48
2023-02-01T07:44:37.446Z,3.53
2023-02-01T07:47:25.127Z,3.51
2023-02-01T07:50:13.581Z,3.51
2023-02-01T07:53:03.624Z,3.54
2023-02-01T07:55:53.389Z,3.54
2023-02-01T07:58:41.869Z,3.59
2023-02-01T08:01:32.657Z,3.61
2023-02-01T08:04:21.458Z,3.58
2023-02-01T08:07:09.809Z,3.63
2023-02-01T08:10:01.107Z,3.63
2023-02-01T08:12:52.930Z,3.66
2023-02-01T08:15:41.614Z,3.70
2023-02-01T08:18:31.956Z,3.73
2023-02-01T08:21:22.991Z,3.74
2023-02-01T08:24:12.899Z,3.83
2023-02-01T08:27:02.248Z,3.85
2023-02-01T08:29:51.739Z,3.89
2023-02-01T08:32:40.172Z,3.95
2023-02-01T08:35:42.325Z,3.99
2023-02-01T08:38:31.132Z,4.01
2023-02-01T08:41:21.792Z,4.05
2023-02-01T08:44:09.437Z,4.08
2023-02-01T08:46:58.252Z,4.13
2023-02-01T08:49:45.815Z,4.15
2023-02-01T08:52:33.670Z,4.19
2023-02-01T08:55:28.713Z,4.20
2023-02-01T08:58:17.944Z,4.27
2023-02-01T09:01:09.377Z,4.30
2023-02-01T09:04:00.830Z,4.32
2023-02-01T09:06:49.601Z,4.35
2023-02-01T09:09:39.351Z,4.35
2023-02-01T09:12:26.889Z,4.35
2023-02-01T09:15:15.654Z,4.40
2023-02-01T09:18:03.416Z,4.42
2023-02-01T09:20:52.163Z,4.51
2023-02-01T09:23:40.899Z,4.52
2023-02-01T09:26:33.121Z,4.53
2023-02-01T09:29:21.795Z,4.52
2023-02-01T09:32:09.789Z,4.55
2023-02-01T09:34:57.669Z,4.56
2023-02-01T09:37:47.058Z,4.57
2023-02-01T09:40:37.327Z,4.59
2023-02-01T09:43:43.980Z,4.68
2023-02-01T09:46:35.717Z,4.72
2023-02-01T09:49:29.659Z,4.78
2023-02-01T09:52:28.770Z,4.83
2023-02-01T09:55:26.581Z,4.93
2023-02-01T09:58:21.365Z,4.94
2023-02-01T10:01:26.284Z,5.03
2023-02-01T10:04:18.672Z,5.06
2023-02-01T10:07:25.946Z,5.12
2023-02-01T10:10:24.017Z,5.16
2023-02-01T10:13:37.637Z,5.20
2023-02-01T10:16:45.519Z,5.23
2023-02-01T10:19:46.887Z,5.22
2023-02-01T10:23:10.295Z,5.24
2023-02-01T10:25:57.084Z,5.23
2023-02-01T10:28:50.719Z,5.22
2023-02-01T10:31:40.405Z,5.20
2023-02-01T10:34:33.376Z,5.18
2023-02-01T10:37:30.297Z,5.15
2023-02-01T10:40:23.441Z,5.12
2023-02-01T10:43:14.475Z,5.07
2023-02-01T10:46:02.004Z,5.05
2023-02-01T10:48:50.815Z,5.06
2023-02-01T10:51:49.694Z,5.06
2023-02-01T10:54:40.641Z,5.09
2023-02-01T10:57:30.721Z,5.11
2023-02-01T11:00:24.434Z,5.14
2023-02-01T11:03:41.797Z,5.16
2023-02-01T11:06:32.731Z,5.18
2023-02-01T11:09:25.247Z,5.18
2023-02-01T11:12:29.086Z,5.18
2023-02-01T11:15:24.221Z,5.15
2023-02-01T11:18:20.259Z,5.16
2023-02-01T11:21:10.335Z,5.15
2023-02-01T11:24:03.543Z,5.11
2023-02-01T11:26:53.765Z,5.09
2023-02-01T11:29:46.840Z,5.07
2023-02-01T11:32:35.592Z,5.07
2023-02-01T11:35:25.133Z,5.07
2023-02-01T11:38:28.385Z,5.07
2023-02-01T11:41:23.689Z,5.12
2023-02-01T11:44:24.112Z,5.18
2023-02-01T11:47:27.683Z,5.25
2023-02-01T11:50:23.333Z,5.31
2023-02-01T11:53:33.105Z,5.35
2023-02-01T11:56:29.701Z,5.41
2023-02-01T11:59:41.026Z,5.47
2023-02-01T12:03:07.332Z,5.51
2023-02-01T12:06:01.725Z,5.54
2023-02-01T12:09:13.800Z,5.55
2023-02-01T12:12:16.374Z,5.55
2023-02-01T12:15:35.144Z,5.58
2023-02-01T12:19:11.868Z,5.62
2023-02-01T12:22:16.782Z,5.65
2023-02-01T12:25:24.629Z,5.67
2023-02-01T12:28:45.456Z,5.65
2023-02-01T12:31:55.654Z,5.62
2023-02-01T12:35:19.429Z,5.59
2023-02-01T12:38:37.515Z,5.56
2023-02-01T12:41:52.382Z,5.47
2023-02-01T12:44:49.455Z,5.37
2023-02-01T12:47:43.205Z,5.27
2023-02-01T12:50:46.070Z,5.27
2023-02-01T12:53:47.898Z,5.22
2023-02-01T12:56:45.122Z,5.18
2023-02-01T12:59:40.721Z,5.15
2023-02-01T13:02:41.450Z,5.15
2023-02-01T13:05:37.715Z,5.13
2023-02-01T13:08:33.579Z,5.08
2023-02-01T13:11:31.211Z,5.08
2023-02-01T13:14:34.829Z,5.05
2023-02-01T13:17:26.834Z,5.06
2023-02-01T13:20:23.895Z,5.04
2023-02-01T13:23:26.006Z,5.02
2023-02-01T13:26:14.039Z,5.02
2023-02-01T13:29:08.610Z,5.05
2023-02-01T13:33:50.957Z,5.06
2023-02-01T13:36:40.921Z,5.06
2023-02-01T13:40:01.515Z,5.06
2023-02-01T13:42:55.746Z,5.04
2023-02-01T13:45:52.537Z,5.08
2023-02-01T13:48:48.252Z,5.12
2023-02-01T13:51:43.032Z,5.11
2023-02-01T13:54:33.964Z,5.13
2023-02-01T13:57:39.348Z,5.16
2023-02-01T14:00:31.881Z,5.19
2023-02-01T14:03:24.561Z,5.22
2023-02-01T14:06:41.899Z,5.22
2023-02-01T14:09:39.579Z,5.24
2023-02-01T14:12:49.970Z,5.24
2023-02-01T14:15:39.517Z,5.24
2023-02-01T14:19:02.032Z,5.21
2023-02-01T14:21:54.982Z,5.21
2023-02-01T14:24:52.870Z,5.20
2023-02-01T14:27:41.538Z,5.20
2023-02-01T14:30:29.305Z,5.19
2023-02-01T14:33:24.333Z,5.19
2023-02-01T14:36:16.691Z,5.15
2023-02-01T14:39:05.272Z,5.12
2023-02-01T14:42:02.491Z,5.11
2023-02-01T14:44:59.122Z,5.12
2023-02-01T14:47:49.703Z,5.10
2023-02-01T14:50:42.257Z,5.07
2023-02-01T14:53:36.854Z,5.07
2023-02-01T14:56:26.853Z,5.04
2023-02-01T14:59:18.856Z,5.03
2023-02-01T15:02:24.652Z,5.02
2023-02-01T15:05:31.819Z,4.99
2023-02-01T15:08:28.793Z,5.01
2023-02-01T15:11:18.842Z,4.98
2023-02-01T15:14:16.773Z,4.96
2023-02-01T15:17:05.554Z,4.96
2023-02-01T15:19:58.325Z,4.94
2023-02-01T15:22:57.431Z,4.95
2023-02-01T15:25:48.447Z,4.93
2023-02-01T15:28:37.793Z,4.93
2023-02-01T15:31:38.489Z,4.93
2023-02-01T15:34:49.658Z,4.93
2023-02-01T15:37:45.267Z,4.92
2023-02-01T15:40:33.596Z,4.92
2023-02-01T15:43:21.363Z,4.91
2023-02-01T15:46:19.568Z,4.89
2023-02-01T15:49:21.288Z,4.90
2023-02-01T15:52:25.901Z,4.88
2023-02-01T15:55:26.013Z,4.85
2023-02-01T15:58:21.850Z,4.85
2023-02-01T16:01:15.867Z,4.86
2023-02-01T16:04:24.946Z,4.82
2023-02-01T16:07:29.902Z,4.81
2023-02-01T16:10:30.234Z,4.80
2023-02-01T16:13:22.853Z,4.80
2023-02-01T16:16:14.919Z,4.76
2023-02-01T16:19:04.129Z,4.76
2023-02-01T16:21:52.456Z,4.74
2023-02-01T16:24:40.014Z,4.73
2023-02-01T16:27:27.627Z,4.70
2023-02-01T16:30:23.997Z,4.70
2023-02-01T16:33:21.534Z,4.73
2023-02-01T16:36:14.461Z,4.70
2023-02-01T16:39:03.805Z,4.68
2023-02-01T16:41:52.090Z,4.69
2023-02-01T16:44:40.296Z,4.71
2023-02-01T16:47:28.085Z,4.65
2023-02-01T16:50:23.485Z,4.73
2023-02-01T16:53:16.249Z,4.69
2023-02-01T16:56:07.571Z,4.66
2023-02-01T16:58:55.356Z,4.67
2023-02-01T17:01:43.763Z,4.65
2023-02-01T17:04:31.509Z,4.67
2023-02-01T17:07:21.130Z,4.64
2023-02-01T17:10:34.558Z,4.69
2023-02-01T17:13:22.498Z,4.70
2023-02-01T17:16:27.167Z,4.71
2023-02-01T17:19:18.246Z,4.72
2023-02-01T17:22:05.867Z,4.70
2023-02-01T17:24:54.276Z,4.68
2023-02-01T17:27:45.287Z,4.68
2023-02-01T17:30:34.002Z,4.71
2023-02-01T17:33:27.164Z,4.70
2023-02-01T17:36:17.272Z,4.70
2023-02-01T17:39:06.629Z,4.70
2023-02-01T17:41:54.204Z,4.70
2023-02-01T17:44:43.003Z,4.70
2023-02-01T17:47:30.642Z,4.70
2023-02-01T17:50:18.530Z,4.68
2023-02-01T17:53:11.511Z,4.67
2023-02-01T17:55:59.172Z,4.67
2023-02-01T17:58:48.040Z,4.65
2023-02-01T18:01:38.080Z,4.67
2023-02-01T18:04:25.579Z,4.62
2023-02-01T18:07:13.210Z,4.58
2023-02-01T18:10:02.045Z,4.54
2023-02-01T18:12:49.818Z,4.53
2023-02-01T18:15:37.617Z,4.54
2023-02-01T18:18:26.557Z,4.53
2023-02-01T18:21:14.923Z,4.54
2023-02-01T18:24:02.959Z,4.53
2023-02-01T18:26:52.101Z,4.52
2023-02-01T18:29:42.880Z,4.52
2023-02-01T18:32:30.730Z,4.53
2023-02-01T18:35:23.303Z,4.51
2023-02-01T18:38:18.282Z,4.50
2023-02-01T18:41:11.473Z,4.58
2023-02-01T18:47:17.037Z,4.52
2023-02-01T18:50:21.138Z,4.59
2023-02-01T18:53:33.883Z,4.56
2023-02-01T18:56:41.213Z,4.52
2023-02-01T18:59:42.101Z,4.54
2023-02-01T19:02:41.016Z,4.53
2023-02-01T19:05:45.872Z,4.53
2023-02-01T19:08:40.602Z,4.52
2023-02-01T19:11:48.907Z,4.52
2023-02-01T19:14:45.090Z,4.52
2023-02-01T19:17:34.288Z,4.52
2023-02-01T19:20:31.114Z,4.50
2023-02-01T19:23:25.525Z,4.46
2023-02-01T19:26:22.996Z,4.44
2023-02-01T19:29:14.492Z,4.45
2023-02-01T19:32:17.816Z,4.47
2023-02-01T19:35:08.404Z,4.45
2023-02-01T19:38:04.098Z,4.42
2023-02-01T19:41:48.187Z,4.43
2023-02-01T19:44:29.610Z,4.43
2023-02-01T19:47:27.849Z,4.45
2023-02-01T19:50:28.780Z,4.45
2023-02-01T19:53:25.042Z,4.45
2023-02-01T19:56:20.263Z,4.43
2023-02-01T19:59:17.361Z,4.47
2023-02-01T20:02:31.400Z,4.43
2023-02-01T20:05:32.544Z,4.42
2023-02-01T20:08:26.684Z,4.40
2023-02-01T20:11:27.677Z,4.42
2023-02-01T20:17:47.417Z,4.37
2023-02-01T20:20:39.795Z,4.36
2023-02-01T20:23:30.816Z,4.37
2023-02-01T20:26:32.011Z,4.37
2023-02-01T20:29:25.992Z,4.35
2023-02-01T20:32:15.814Z,4.32
2023-02-01T20:35:11.938Z,4.30
2023-02-01T20:38:02.945Z,4.28
2023-02-01T20:40:55.994Z,4.26
2023-02-01T20:43:43.888Z,4.29
2023-02-01T20:46:34.114Z,4.27
2023-02-01T20:49:24.618Z,4.26
2023-02-01T20:52:17.335Z,4.25
2023-02-01T20:55:15.225Z,4.25
2023-02-01T20:58:14.308Z,4.24
2023-02-01T21:01:07.780Z,4.22
2023-02-01T21:03:55.514Z,4.25
2023-02-01T21:06:43.069Z,4.29
2023-02-01T21:09:31.862Z,4.28
2023-02-01T21:12:19.660Z,4.26
2023-02-01T21:15:08.932Z,4.24
2023-02-01T21:17:56.574Z,4.22
2023-02-01T21:20:46.673Z,4.23
2023-02-01T21:23:44.693Z,4.20
2023-02-01T21:26:40.817Z,4.22
2023-02-01T21:29:32.022Z,4.19
2023-02-01T21:32:19.491Z,4.17
2023-02-01T21:35:08.173Z,4.19
2023-02-01T21:37:56.044Z,4.15
2023-02-01T21:40:44.292Z,4.12
2023-02-01T21:43:32.943Z,4.12
2023-02-01T21:46:22.867Z,4.12
2023-02-01T21:49:11.012Z,4.10
2023-02-01T21:51:58.823Z,4.10
2023-02-01T21:54:46.645Z,4.09
2023-02-01T21:57:35.524Z,4.06
2023-02-01T22:00:24.904Z,4.07
2023-02-01T22:03:12.506Z,4.04
2023-02-01T22:06:00.367Z,4.05
2023-02-01T22:08:47.952Z,4.02
2023-02-01T22:11:35.552Z,4.01
2023-02-01T22:14:24.203Z,4.02
2023-02-01T22:17:14.682Z,4.07
2023-02-01T22:20:02.668Z,4.05
2023-02-01T22:22:50.444Z,4.06
2023-02-01T22:25:37.973Z,4.04
2023-02-01T22:28:32.365Z,4.08
2023-02-01T22:31:22.405Z,4.08
2023-02-01T22:34:13.884Z,4.11
2023-02-01T22:37:01.275Z,4.09
2023-02-01T22:39:48.528Z,4.12
2023-02-01T22:42:36.030Z,4.18
2023-02-01T22:45:23.755Z,4.16
2023-02-01T22:48:11.371Z,4.17
2023-02-01T22:51:01.510Z,4.16
2023-02-01T22:53:57.081Z,4.17
2023-02-01T22:56:44.754Z,4.21
2023-02-01T22:59:32.178Z,4.19
2023-02-01T23:02:19.577Z,4.25
2023-02-01T23:05:07.884Z,4.25
2023-02-01T23:07:56.857Z,4.27
2023-02-01T23:10:44.587Z,4.27
2023-02-01T23:13:32.651Z,4.26
2023-02-01T23:16:20.191Z,4.27
2023-02-01T23:19:08.141Z,4.29
2023-02-01T23:21:55.450Z,4.33
2023-02-01T23:24:44.297Z,4.33
2023-02-01T23:27:31.865Z,4.39
2023-02-01T23:30:19.657Z,4.38
2023-02-01T23:33:06.978Z,4.39
2023-02-01T23:36:04.052Z,4.39
2023-02-01T23:38:52.307Z,4.38
2023-02-01T23:41:41.325Z,4.42
2023-02-01T23:44:29.257Z,4.44
2023-02-01T23:47:17.000Z,4.44
2023-02-01T23:50:04.504Z,4.44
2023-02-01T23:52:52.101Z,4.50
2023-02-01T23:55:39.522Z,4.47
2023-02-01T23:58:28.592Z,4.51
